sensor_id;sensor_type;location;lat;lon;timestamp;temperature;humidity
71396;DHT22;59888;55.814;37.132;2023-06-10T00:02:09;13.19;46.02
71396;DHT22;59888;55.814;37.132;2023-06-10T00:04:35;13.16;45.67
71396;DHT22;59888;55.814;37.132;2023-06-10T00:07:05;13.11;46.32
71396;DHT22;59888;55.814;37.132;2023-06-10T00:09:36;13.08;46.28
71396;DHT22;59888;55.814;37.132;2023-06-10T00:12:06;13.07;46.86
71396;DHT22;59888;55.814;37.132;2023-06-10T00:14:34;13.02;46.38
71396;DHT22;59888;55.814;37.132;2023-06-10T00:17:02;12.99;46.61
71396;DHT22;59888;55.814;37.132;2023-06-10T00:19:28;12.94;46.45
71396;DHT22;59888;55.814;37.132;2023-06-10T00:21:57;12.92;46.96
71396;DHT22;59888;55.814;37.132;2023-06-10T00:24:24;12.89;46.61
71396;DHT22;59888;55.814;37.132;2023-06-10T00:26:50;12.89;46.69
71396;DHT22;59888;55.814;37.132;2023-06-10T00:29:16;12.86;47.57
71396;DHT22;59888;55.814;37.132;2023-06-10T00:31:45;12.86;46.92
71396;DHT22;59888;55.814;37.132;2023-06-10T00:34:12;12.85;46.67
71396;DHT22;59888;55.814;37.132;2023-06-10T00:36:39;12.80;46.77
71396;DHT22;59888;55.814;37.132;2023-06-10T00:39:05;12.78;46.80
71396;DHT22;59888;55.814;37.132;2023-06-10T00:41:31;12.80;46.86
71396;DHT22;59888;55.814;37.132;2023-06-10T00:44:19;12.78;48.34
71396;DHT22;59888;55.814;37.132;2023-06-10T00:46:45;12.75;47.08
71396;DHT22;59888;55.814;37.132;2023-06-10T00:49:11;12.78;47.56
71396;DHT22;59888;55.814;37.132;2023-06-10T00:51:37;12.76;47.34
71396;DHT22;59888;55.814;37.132;2023-06-10T00:54:05;12.73;47.15
71396;DHT22;59888;55.814;37.132;2023-06-10T00:56:33;12.75;47.25
71396;DHT22;59888;55.814;37.132;2023-06-10T00:59:01;12.75;47.06
71396;DHT22;59888;55.814;37.132;2023-06-10T01:01:28;12.70;47.19
71396;DHT22;59888;55.814;37.132;2023-06-10T01:03:55;12.64;47.18
71396;DHT22;59888;55.814;37.132;2023-06-10T01:06:55;12.57;48.51
71396;DHT22;59888;55.814;37.132;2023-06-10T01:09:38;12.58;47.72
71396;DHT22;59888;55.814;37.132;2023-06-10T01:12:15;12.52;48.04
71396;DHT22;59888;55.814;37.132;2023-06-10T01:14:43;12.51;47.52
71396;DHT22;59888;55.814;37.132;2023-06-10T01:17:10;12.50;48.16
71396;DHT22;59888;55.814;37.132;2023-06-10T01:19:36;12.48;47.92
71396;DHT22;59888;55.814;37.132;2023-06-10T01:22:03;12.52;47.55
71396;DHT22;59888;55.814;37.132;2023-06-10T01:24:29;12.55;47.63
71396;DHT22;59888;55.814;37.132;2023-06-10T01:27:01;12.52;47.79
71396;DHT22;59888;55.814;37.132;2023-06-10T01:29:46;12.52;48.15
71396;DHT22;59888;55.814;37.132;2023-06-10T01:32:23;12.53;48.79
71396;DHT22;59888;55.814;37.132;2023-06-10T01:34:51;12.52;47.59
71396;DHT22;59888;55.814;37.132;2023-06-10T01:37:19;12.53;47.86
71396;DHT22;59888;55.814;37.132;2023-06-10T01:39:49;12.50;47.99
71396;DHT22;59888;55.814;37.132;2023-06-10T01:42:15;12.53;48.32
71396;DHT22;59888;55.814;37.132;2023-06-10T01:44:41;12.55;48.39
71396;DHT22;59888;55.814;37.132;2023-06-10T01:47:08;12.56;47.44
71396;DHT22;59888;55.814;37.132;2023-06-10T01:49:36;12.55;47.96
71396;DHT22;59888;55.814;37.132;2023-06-10T01:52:02;12.50;48.33
71396;DHT22;59888;55.814;37.132;2023-06-10T01:54:38;12.49;49.07
71396;DHT22;59888;55.814;37.132;2023-06-10T01:57:10;12.52;48.89
71396;DHT22;59888;55.814;37.132;2023-06-10T01:59:36;12.57;47.90
71396;DHT22;59888;55.814;37.132;2023-06-10T02:02:04;12.62;47.64
71396;DHT22;59888;55.814;37.132;2023-06-10T02:04:36;12.65;48.41
71396;DHT22;59888;55.814;37.132;2023-06-10T02:07:02;12.65;47.70
71396;DHT22;59888;55.814;37.132;2023-06-10T02:09:32;12.67;48.24
71396;DHT22;59888;55.814;37.132;2023-06-10T02:12:02;12.66;48.02
71396;DHT22;59888;55.814;37.132;2023-06-10T02:14:29;12.69;47.60
71396;DHT22;59888;55.814;37.132;2023-06-10T02:16:55;12.72;47.73
71396;DHT22;59888;55.814;37.132;2023-06-10T02:19:23;12.79;48.23
71396;DHT22;59888;55.814;37.132;2023-06-10T02:21:51;12.86;48.47
71396;DHT22;59888;55.814;37.132;2023-06-10T02:24:18;12.91;47.52
71396;DHT22;59888;55.814;37.132;2023-06-10T02:26:44;12.94;48.17
71396;DHT22;59888;55.814;37.132;2023-06-10T02:29:10;13.05;47.41
71396;DHT22;59888;55.814;37.132;2023-06-10T02:31:36;13.11;47.00
71396;DHT22;59888;55.814;37.132;2023-06-10T02:34:14;13.09;47.86
71396;DHT22;59888;55.814;37.132;2023-06-10T02:36:40;13.11;47.70
71396;DHT22;59888;55.814;37.132;2023-06-10T02:39:07;13.10;46.80
71396;DHT22;59888;55.814;37.132;2023-06-10T02:41:34;13.12;47.57
71396;DHT22;59888;55.814;37.132;2023-06-10T02:44:01;13.27;47.37
71396;DHT22;59888;55.814;37.132;2023-06-10T02:46:28;13.33;47.02
71396;DHT22;59888;55.814;37.132;2023-06-10T02:48:54;13.38;47.53
71396;DHT22;59888;55.814;37.132;2023-06-10T02:51:23;13.47;46.50
71396;DHT22;59888;55.814;37.132;2023-06-10T02:54:01;13.52;47.60
71396;DHT22;59888;55.814;37.132;2023-06-10T02:56:27;13.61;46.70
71396;DHT22;59888;55.814;37.132;2023-06-10T02:58:55;13.65;46.73
71396;DHT22;59888;55.814;37.132;2023-06-10T03:01:23;13.74;46.43
71396;DHT22;59888;55.814;37.132;2023-06-10T03:03:58;13.80;46.20
71396;DHT22;59888;55.814;37.132;2023-06-10T03:06:25;13.90;46.25
71396;DHT22;59888;55.814;37.132;2023-06-10T03:08:56;13.97;46.35
71396;DHT22;59888;55.814;37.132;2023-06-10T03:11:22;14.08;46.46
71396;DHT22;59888;55.814;37.132;2023-06-10T03:13:50;14.19;45.80
71396;DHT22;59888;55.814;37.132;2023-06-10T03:16:21;14.29;45.63
71396;DHT22;59888;55.814;37.132;2023-06-10T03:18:49;14.38;45.53
71396;DHT22;59888;55.814;37.132;2023-06-10T03:21:15;14.42;44.87
71396;DHT22;59888;55.814;37.132;2023-06-10T07:18:52;19.48;33.45
71396;DHT22;59888;55.814;37.132;2023-06-10T07:21:18;19.22;33.33
71396;DHT22;59888;55.814;37.132;2023-06-10T07:23:57;19.12;33.35
71396;DHT22;59888;55.814;37.132;2023-06-10T07:26:23;19.16;33.27
71396;DHT22;59888;55.814;37.132;2023-06-10T07:28:57;19.21;32.38
71396;DHT22;59888;55.814;37.132;2023-06-10T08:28:56;19.43;28.10
71396;DHT22;59888;55.814;37.132;2023-06-10T08:31:22;19.32;30.80
71396;DHT22;59888;55.814;37.132;2023-06-10T08:33:48;19.45;31.15
71396;DHT22;59888;55.814;37.132;2023-06-10T08:36:14;19.58;29.26
71396;DHT22;59888;55.814;37.132;2023-06-10T08:38:40;19.68;28.95
71396;DHT22;59888;55.814;37.132;2023-06-10T08:41:12;19.85;29.87
71396;DHT22;59888;55.814;37.132;2023-06-10T08:43:57;19.99;25.70
71396;DHT22;59888;55.814;37.132;2023-06-10T08:46:24;20.01;28.76
71396;DHT22;59888;55.814;37.132;2023-06-10T08:48:54;20.21;28.82
71396;DHT22;59888;55.814;37.132;2023-06-10T08:51:22;20.24;28.36
71396;DHT22;59888;55.814;37.132;2023-06-10T08:54:01;20.03;27.47
71396;DHT22;59888;55.814;37.132;2023-06-10T08:56:29;19.85;28.13
71396;DHT22;59888;55.814;37.132;2023-06-10T08:58:57;19.84;27.49
71396;DHT22;59888;55.814;37.132;2023-06-10T09:01:25;19.83;28.03
71396;DHT22;59888;55.814;37.132;2023-06-10T09:03:52;20.06;29.11
71396;DHT22;59888;55.814;37.132;2023-06-10T09:06:18;20.34;28.35
71396;DHT22;59888;55.814;37.132;2023-06-10T09:08:44;20.73;28.59
71396;DHT22;59888;55.814;37.132;2023-06-10T09:11:10;21.07;28.45
71396;DHT22;59888;55.814;37.132;2023-06-10T09:13:36;21.33;28.55
71396;DHT22;59888;55.814;37.132;2023-06-10T09:16:03;21.50;27.84
71396;DHT22;59888;55.814;37.132;2023-06-10T09:18:30;21.64;26.96
71396;DHT22;59888;55.814;37.132;2023-06-10T09:25:07;21.19;27.26
71396;DHT22;59888;55.814;37.132;2023-06-10T09:27:46;21.27;26.23
71396;DHT22;59888;55.814;37.132;2023-06-10T09:30:31;21.20;26.93
71396;DHT22;59888;55.814;37.132;2023-06-10T09:33:14;21.30;25.20
71396;DHT22;59888;55.814;37.132;2023-06-10T09:35:46;21.38;26.81
71396;DHT22;59888;55.814;37.132;2023-06-10T09:38:14;21.57;26.13
71396;DHT22;59888;55.814;37.132;2023-06-10T09:40:51;21.72;25.17
71396;DHT22;59888;55.814;37.132;2023-06-10T09:43:18;21.65;26.14
71396;DHT22;59888;55.814;37.132;2023-06-10T09:45:44;21.77;26.33
71396;DHT22;59888;55.814;37.132;2023-06-10T09:48:13;21.89;25.68
71396;DHT22;59888;55.814;37.132;2023-06-10T09:50:43;21.92;25.33
71396;DHT22;59888;55.814;37.132;2023-06-10T09:53:10;21.97;27.14
71396;DHT22;59888;55.814;37.132;2023-06-10T09:55:41;21.97;25.80
71396;DHT22;59888;55.814;37.132;2023-06-10T09:58:07;22.22;26.09
71396;DHT22;59888;55.814;37.132;2023-06-10T10:00:33;22.46;25.59
71396;DHT22;59888;55.814;37.132;2023-06-10T10:03:10;22.61;24.13
71396;DHT22;59888;55.814;37.132;2023-06-10T10:05:47;22.48;26.13
71396;DHT22;59888;55.814;37.132;2023-06-10T10:08:13;22.20;25.51
71396;DHT22;59888;55.814;37.132;2023-06-10T10:10:39;21.84;25.75
71396;DHT22;59888;55.814;37.132;2023-06-10T10:13:20;21.70;26.14
71396;DHT22;59888;55.814;37.132;2023-06-10T10:15:47;21.49;26.26
71396;DHT22;59888;55.814;37.132;2023-06-10T10:18:17;21.37;24.95
71396;DHT22;59888;55.814;37.132;2023-06-10T10:20:53;21.17;24.35
71396;DHT22;59888;55.814;37.132;2023-06-10T10:23:35;21.03;25.16
71396;DHT22;59888;55.814;37.132;2023-06-10T10:26:04;20.99;25.26
71396;DHT22;59888;55.814;37.132;2023-06-10T10:28:47;20.95;24.98
71396;DHT22;59888;55.814;37.132;2023-06-10T10:31:16;21.25;25.65
71396;DHT22;59888;55.814;37.132;2023-06-10T10:36:13;21.76;25.45
71396;DHT22;59888;55.814;37.132;2023-06-10T10:38:41;21.74;25.38
71396;DHT22;59888;55.814;37.132;2023-06-10T10:41:08;21.81;26.07
71396;DHT22;59888;55.814;37.132;2023-06-10T10:43:34;22.16;26.08
71396;DHT22;59888;55.814;37.132;2023-06-10T10:46:01;22.35;24.91
71396;DHT22;59888;55.814;37.132;2023-06-10T10:48:38;22.14;21.64
71396;DHT22;59888;55.814;37.132;2023-06-10T10:51:24;22.06;23.61
71396;DHT22;59888;55.814;37.132;2023-06-10T10:54:12;21.92;23.94
71396;DHT22;59888;55.814;37.132;2023-06-10T10:56:39;21.84;24.14
71396;DHT22;59888;55.814;37.132;2023-06-10T10:59:06;21.83;24.41
71396;DHT22;59888;55.814;37.132;2023-06-10T11:01:48;21.94;22.95
71396;DHT22;59888;55.814;37.132;2023-06-10T11:04:17;22.14;22.49
71396;DHT22;59888;55.814;37.132;2023-06-10T11:06:53;22.36;24.14
71396;DHT22;59888;55.814;37.132;2023-06-10T11:09:28;22.44;21.76
71396;DHT22;59888;55.814;37.132;2023-06-10T11:12:05;22.26;24.14
71396;DHT22;59888;55.814;37.132;2023-06-10T11:14:32;22.14;23.85
71396;DHT22;59888;55.814;37.132;2023-06-10T11:16:59;22.05;24.92
71396;DHT22;59888;55.814;37.132;2023-06-10T11:19:32;21.88;24.02
71396;DHT22;59888;55.814;37.132;2023-06-10T11:22:05;21.62;23.35
71396;DHT22;59888;55.814;37.132;2023-06-10T11:24:31;21.51;24.35
71396;DHT22;59888;55.814;37.132;2023-06-10T11:27:22;21.40;23.92
71396;DHT22;59888;55.814;37.132;2023-06-10T11:32:34;21.74;24.88
71396;DHT22;59888;55.814;37.132;2023-06-10T11:35:04;21.88;24.57
71396;DHT22;59888;55.814;37.132;2023-06-10T11:37:31;21.99;24.00
71396;DHT22;59888;55.814;37.132;2023-06-10T11:39:57;22.02;24.00
71396;DHT22;59888;55.814;37.132;2023-06-10T11:42:24;22.03;23.64
71396;DHT22;59888;55.814;37.132;2023-06-10T11:44:51;21.95;24.65
71396;DHT22;59888;55.814;37.132;2023-06-10T11:47:18;21.84;24.17
71396;DHT22;59888;55.814;37.132;2023-06-10T11:49:45;21.83;24.76
71396;DHT22;59888;55.814;37.132;2023-06-10T11:52:12;22.25;24.94
71396;DHT22;59888;55.814;37.132;2023-06-10T11:54:38;22.61;24.54
71396;DHT22;59888;55.814;37.132;2023-06-10T11:57:04;22.87;23.66
71396;DHT22;59888;55.814;37.132;2023-06-10T11:59:31;23.16;23.45
71396;DHT22;59888;55.814;37.132;2023-06-10T12:01:58;23.42;23.22
71396;DHT22;59888;55.814;37.132;2023-06-10T12:04:24;23.36;21.06
71396;DHT22;59888;55.814;37.132;2023-06-10T12:06:53;23.30;23.53
71396;DHT22;59888;55.814;37.132;2023-06-10T12:09:27;23.21;23.48
71396;DHT22;59888;55.814;37.132;2023-06-10T12:12:04;23.01;22.63
71396;DHT22;59888;55.814;37.132;2023-06-10T12:17:40;23.07;23.92
71396;DHT22;59888;55.814;37.132;2023-06-10T12:20:23;23.31;24.18
71396;DHT22;59888;55.814;37.132;2023-06-10T12:22:50;23.39;24.20
71396;DHT22;59888;55.814;37.132;2023-06-10T12:25:16;23.56;24.13
71396;DHT22;59888;55.814;37.132;2023-06-10T12:27:52;23.44;22.08
71396;DHT22;59888;55.814;37.132;2023-06-10T12:30:25;23.34;23.72
71396;DHT22;59888;55.814;37.132;2023-06-10T12:32:52;23.44;24.33
71396;DHT22;59888;55.814;37.132;2023-06-10T12:35:20;23.65;23.76
71396;DHT22;59888;55.814;37.132;2023-06-10T12:38:01;23.94;22.60
71396;DHT22;59888;55.814;37.132;2023-06-10T12:40:30;24.17;23.73
71396;DHT22;59888;55.814;37.132;2023-06-10T12:42:57;24.31;22.57
71396;DHT22;59888;55.814;37.132;2023-06-10T12:45:32;24.14;22.12
71396;DHT22;59888;55.814;37.132;2023-06-10T12:48:16;23.85;22.21
71396;DHT22;59888;55.814;37.132;2023-06-10T12:50:43;23.61;22.59
71396;DHT22;59888;55.814;37.132;2023-06-10T12:53:10;23.49;21.79
71396;DHT22;59888;55.814;37.132;2023-06-10T12:55:37;23.75;22.84
71396;DHT22;59888;55.814;37.132;2023-06-10T12:58:03;23.98;22.55
71396;DHT22;59888;55.814;37.132;2023-06-10T13:00:32;24.02;21.77
71396;DHT22;59888;55.814;37.132;2023-06-10T13:03:05;23.83;22.15
71396;DHT22;59888;55.814;37.132;2023-06-10T13:05:32;23.59;23.17
71396;DHT22;59888;55.814;37.132;2023-06-10T13:07:59;23.51;21.33
71396;DHT22;59888;55.814;37.132;2023-06-10T13:10:25;24.44;21.12
71396;DHT22;59888;55.814;37.132;2023-06-10T13:12:52;25.97;20.35
71396;DHT22;59888;55.814;37.132;2023-06-10T13:15:18;25.58;19.59
71396;DHT22;59888;55.814;37.132;2023-06-10T13:17:44;25.13;20.24
71396;DHT22;59888;55.814;37.132;2023-06-10T13:20:15;27.70;19.72
71396;DHT22;59888;55.814;37.132;2023-06-10T13:22:42;0.00;0.00
71396;DHT22;59888;55.814;37.132;2023-06-10T13:25:08;0.00;0.00
71396;DHT22;59888;55.814;37.132;2023-06-10T13:27:35;0.00;0.00
71396;DHT22;59888;55.814;37.132;2023-06-10T13:30:06;35.13;14.71
71396;DHT22;59888;55.814;37.132;2023-06-10T13:33:03;0.00;0.00
71396;DHT22;59888;55.814;37.132;2023-06-10T13:35:30;0.00;0.00
71396;DHT22;59888;55.814;37.132;2023-06-10T13:37:56;0.00;0.00
71396;DHT22;59888;55.814;37.132;2023-06-10T13:40:22;0.00;0.00
71396;DHT22;59888;55.814;37.132;2023-06-10T13:42:48;0.00;0.00
71396;DHT22;59888;55.814;37.132;2023-06-10T13:45:16;0.00;0.00
71396;DHT22;59888;55.814;37.132;2023-06-10T13:47:43;0.00;0.00
71396;DHT22;59888;55.814;37.132;2023-06-10T13:50:09;0.00;0.00
71396;DHT22;59888;55.814;37.132;2023-06-10T13:52:36;0.00;0.00
71396;DHT22;59888;55.814;37.132;2023-06-10T13:55:02;0.00;0.00
71396;DHT22;59888;55.814;37.132;2023-06-10T13:57:30;0.00;0.00
71396;DHT22;59888;55.814;37.132;2023-06-10T13:59:56;28.33;17.80
71396;DHT22;59888;55.814;37.132;2023-06-10T14:02:22;27.34;18.65
71396;DHT22;59888;55.814;37.132;2023-06-10T14:04:48;26.50;18.03
71396;DHT22;59888;55.814;37.132;2023-06-10T14:07:14;25.89;19.57
71396;DHT22;59888;55.814;37.132;2023-06-10T14:09:41;25.67;20.19
71396;DHT22;59888;55.814;37.132;2023-06-10T14:12:07;25.92;20.22
71396;DHT22;59888;55.814;37.132;2023-06-10T14:14:33;26.54;20.19
71396;DHT22;59888;55.814;37.132;2023-06-10T14:17:00;27.93;19.51
71396;DHT22;59888;55.814;37.132;2023-06-10T14:19:26;28.29;17.69
71396;DHT22;59888;55.814;37.132;2023-06-10T14:21:55;27.80;15.96
71396;DHT22;59888;55.814;37.132;2023-06-10T14:24:22;27.01;17.80
71396;DHT22;59888;55.814;37.132;2023-06-10T14:26:48;26.42;18.83
71396;DHT22;59888;55.814;37.132;2023-06-10T14:29:14;25.61;19.36
71396;DHT22;59888;55.814;37.132;2023-06-10T14:31:55;24.85;19.31
71396;DHT22;59888;55.814;37.132;2023-06-10T14:34:21;24.50;20.91
71396;DHT22;59888;55.814;37.132;2023-06-10T14:36:49;24.78;20.25
71396;DHT22;59888;55.814;37.132;2023-06-10T14:39:17;24.66;20.86
71396;DHT22;59888;55.814;37.132;2023-06-10T14:41:56;25.17;20.03
71396;DHT22;59888;55.814;37.132;2023-06-10T14:44:22;25.91;19.56
71396;DHT22;59888;55.814;37.132;2023-06-10T14:46:48;26.65;19.85
71396;DHT22;59888;55.814;37.132;2023-06-10T14:49:14;28.38;18.64
71396;DHT22;59888;55.814;37.132;2023-06-10T14:51:40;29.68;17.77
71396;DHT22;59888;55.814;37.132;2023-06-10T14:54:06;31.00;16.71
71396;DHT22;59888;55.814;37.132;2023-06-10T14:56:32;32.14;16.15
71396;DHT22;59888;55.814;37.132;2023-06-10T14:58:58;33.05;14.74
71396;DHT22;59888;55.814;37.132;2023-06-10T15:01:24;33.76;14.03
71396;DHT22;59888;55.814;37.132;2023-06-10T15:03:49;0.00;0.00
71396;DHT22;59888;55.814;37.132;2023-06-10T15:06:16;0.00;14.08
71396;DHT22;59888;55.814;37.132;2023-06-10T15:08:46;35.57;13.84
71396;DHT22;59888;55.814;37.132;2023-06-10T15:11:19;35.73;13.13
71396;DHT22;59888;55.814;37.132;2023-06-10T15:13:46;35.94;13.26
71396;DHT22;59888;55.814;37.132;2023-06-10T15:16:12;35.86;13.59
71396;DHT22;59888;55.814;37.132;2023-06-10T15:18:38;36.14;12.99
71396;DHT22;59888;55.814;37.132;2023-06-10T15:21:09;36.37;11.80
71396;DHT22;59888;55.814;37.132;2023-06-10T15:23:35;36.28;13.41
71396;DHT22;59888;55.814;37.132;2023-06-10T15:26:07;36.56;13.00
71396;DHT22;59888;55.814;37.132;2023-06-10T15:28:33;36.92;13.61
71396;DHT22;59888;55.814;37.132;2023-06-10T15:31:00;37.13;13.41
71396;DHT22;59888;55.814;37.132;2023-06-10T15:33:28;36.90;11.21
71396;DHT22;59888;55.814;37.132;2023-06-10T15:35:58;36.46;13.01
71396;DHT22;59888;55.814;37.132;2023-06-10T15:38:24;35.64;12.68
71396;DHT22;59888;55.814;37.132;2023-06-10T15:40:50;33.85;13.49
71396;DHT22;59888;55.814;37.132;2023-06-10T15:43:16;32.91;14.36
71396;DHT22;59888;55.814;37.132;2023-06-10T15:45:42;32.94;13.64
71396;DHT22;59888;55.814;37.132;2023-06-10T15:48:08;33.07;13.91
71396;DHT22;59888;55.814;37.132;2023-06-10T15:50:34;33.40;12.61
71396;DHT22;59888;55.814;37.132;2023-06-10T15:53:00;33.65;13.85
71396;DHT22;59888;55.814;37.132;2023-06-10T15:55:27;33.87;13.37
71396;DHT22;59888;55.814;37.132;2023-06-10T15:57:55;33.81;13.09
71396;DHT22;59888;55.814;37.132;2023-06-10T16:00:23;33.97;13.67
71396;DHT22;59888;55.814;37.132;2023-06-10T16:02:49;34.21;13.23
71396;DHT22;59888;55.814;37.132;2023-06-10T16:05:15;34.20;12.54
71396;DHT22;59888;55.814;37.132;2023-06-10T16:07:41;34.01;13.06
71396;DHT22;59888;55.814;37.132;2023-06-10T16:10:07;33.44;12.89
71396;DHT22;59888;55.814;37.132;2023-06-10T16:12:33;32.96;13.39
71396;DHT22;59888;55.814;37.132;2023-06-10T16:14:59;32.62;12.77
71396;DHT22;59888;55.814;37.132;2023-06-10T16:17:25;32.04;12.78
71396;DHT22;59888;55.814;37.132;2023-06-10T16:19:51;0.00;0.00
71396;DHT22;59888;55.814;37.132;2023-06-10T16:22:17;0.00;0.00
71396;DHT22;59888;55.814;37.132;2023-06-10T16:24:43;30.69;13.81
71396;DHT22;59888;55.814;37.132;2023-06-10T16:27:09;30.39;14.74
71396;DHT22;59888;55.814;37.132;2023-06-10T16:29:35;30.13;14.00
71396;DHT22;59888;55.814;37.132;2023-06-10T16:32:01;29.94;11.59
71396;DHT22;59888;55.814;37.132;2023-06-10T16:34:28;29.72;14.81
71396;DHT22;59888;55.814;37.132;2023-06-10T16:36:53;29.38;15.25
71396;DHT22;59888;55.814;37.132;2023-06-10T16:39:19;29.26;15.48
71396;DHT22;59888;55.814;37.132;2023-06-10T16:41:55;29.42;13.86
71396;DHT22;59888;55.814;37.132;2023-06-10T16:44:21;29.23;14.40
71396;DHT22;59888;55.814;37.132;2023-06-10T16:46:47;29.09;14.48
71396;DHT22;59888;55.814;37.132;2023-06-10T16:49:16;28.91;15.59
71396;DHT22;59888;55.814;37.132;2023-06-10T16:51:42;28.79;15.19
71396;DHT22;59888;55.814;37.132;2023-06-10T16:54:08;28.53;15.26
71396;DHT22;59888;55.814;37.132;2023-06-10T16:56:34;27.89;15.36
71396;DHT22;59888;55.814;37.132;2023-06-10T16:59:01;26.94;15.82
71396;DHT22;59888;55.814;37.132;2023-06-10T17:01:26;26.04;16.74
71396;DHT22;59888;55.814;37.132;2023-06-10T17:03:52;25.42;17.26
71396;DHT22;59888;55.814;37.132;2023-06-10T17:06:19;25.15;17.58
71396;DHT22;59888;55.814;37.132;2023-06-10T17:08:45;24.77;17.94
71396;DHT22;59888;55.814;37.132;2023-06-10T17:11:11;24.33;18.21
71396;DHT22;59888;55.814;37.132;2023-06-10T17:13:37;23.84;18.69
71396;DHT22;59888;55.814;37.132;2023-06-10T17:16:03;23.31;19.10
71396;DHT22;59888;55.814;37.132;2023-06-10T17:18:29;22.92;19.50
71396;DHT22;59888;55.814;37.132;2023-06-10T17:20:55;22.52;19.85
71396;DHT22;59888;55.814;37.132;2023-06-10T17:23:22;22.06;20.36
71396;DHT22;59888;55.814;37.132;2023-06-10T17:25:48;21.72;20.66
71396;DHT22;59888;55.814;37.132;2023-06-10T17:28:14;21.32;21.05
71396;DHT22;59888;55.814;37.132;2023-06-10T17:30:42;20.98;21.40
71396;DHT22;59888;55.814;37.132;2023-06-10T17:33:11;20.63;21.89
71396;DHT22;59888;55.814;37.132;2023-06-10T17:35:36;20.36;22.09
71396;DHT22;59888;55.814;37.132;2023-06-10T17:38:03;20.05;22.43
71396;DHT22;59888;55.814;37.132;2023-06-10T17:40:28;19.80;22.73
71396;DHT22;59888;55.814;37.132;2023-06-10T17:42:54;19.55;22.92
71396;DHT22;59888;55.814;37.132;2023-06-10T17:45:24;19.32;23.19
71396;DHT22;59888;55.814;37.132;2023-06-10T17:47:50;19.03;23.75
71396;DHT22;59888;55.814;37.132;2023-06-10T17:50:16;18.81;23.74
71396;DHT22;59888;55.814;37.132;2023-06-10T17:52:42;18.61;24.24
71396;DHT22;59888;55.814;37.132;2023-06-10T17:55:08;18.42;24.28
71396;DHT22;59888;55.814;37.132;2023-06-10T17:57:34;18.25;24.60
71396;DHT22;59888;55.814;37.132;2023-06-10T18:00:00;18.04;25.04
71396;DHT22;59888;55.814;37.132;2023-06-10T18:02:26;17.85;25.13
71396;DHT22;59888;55.814;37.132;2023-06-10T18:04:52;17.70;25.20
71396;DHT22;59888;55.814;37.132;2023-06-10T18:07:18;17.58;25.78
71396;DHT22;59888;55.814;37.132;2023-06-10T18:09:44;17.43;25.85
71396;DHT22;59888;55.814;37.132;2023-06-10T18:12:15;17.28;26.49
71396;DHT22;59888;55.814;37.132;2023-06-10T18:14:41;17.11;26.31
71396;DHT22;59888;55.814;37.132;2023-06-10T18:17:07;16.95;26.49
71396;DHT22;59888;55.814;37.132;2023-06-10T18:19:37;16.81;26.76
71396;DHT22;59888;55.814;37.132;2023-06-10T18:22:05;16.71;26.86
71396;DHT22;59888;55.814;37.132;2023-06-10T18:24:32;16.60;27.71
71396;DHT22;59888;55.814;37.132;2023-06-10T18:26:58;16.48;27.34
71396;DHT22;59888;55.814;37.132;2023-06-10T18:29:24;16.30;28.30
71396;DHT22;59888;55.814;37.132;2023-06-10T18:31:50;16.15;28.58
71396;DHT22;59888;55.814;37.132;2023-06-10T18:34:16;16.00;29.41
71396;DHT22;59888;55.814;37.132;2023-06-10T18:36:42;15.84;28.65
71396;DHT22;59888;55.814;37.132;2023-06-10T18:39:08;15.76;28.76
71396;DHT22;59888;55.814;37.132;2023-06-10T18:41:34;15.70;28.84
71396;DHT22;59888;55.814;37.132;2023-06-10T18:44:01;15.60;28.87
71396;DHT22;59888;55.814;37.132;2023-06-10T18:46:27;15.48;29.94
71396;DHT22;59888;55.814;37.132;2023-06-10T18:48:53;15.34;29.51
71396;DHT22;59888;55.814;37.132;2023-06-10T18:51:19;15.26;30.53
71396;DHT22;59888;55.814;37.132;2023-06-10T18:53:45;15.15;30.44
71396;DHT22;59888;55.814;37.132;2023-06-10T18:56:14;15.02;30.06
71396;DHT22;59888;55.814;37.132;2023-06-10T18:58:40;15.00;30.03
71396;DHT22;59888;55.814;37.132;2023-06-10T19:01:29;14.89;31.16
71396;DHT22;59888;55.814;37.132;2023-06-10T19:03:55;14.87;31.47
71396;DHT22;59888;55.814;37.132;2023-06-10T19:06:22;14.80;30.38
71396;DHT22;59888;55.814;37.132;2023-06-10T19:08:48;14.75;30.87
71396;DHT22;59888;55.814;37.132;2023-06-10T19:11:24;14.69;32.64
71396;DHT22;59888;55.814;37.132;2023-06-10T19:13:50;14.59;31.13
71396;DHT22;59888;55.814;37.132;2023-06-10T19:16:16;14.48;31.98
71396;DHT22;59888;55.814;37.132;2023-06-10T19:18:45;14.39;31.95
71396;DHT22;59888;55.814;37.132;2023-06-10T19:21:36;14.33;32.44
71396;DHT22;59888;55.814;37.132;2023-06-10T19:24:02;14.23;31.80
71396;DHT22;59888;55.814;37.132;2023-06-10T19:26:29;14.20;31.82
71396;DHT22;59888;55.814;37.132;2023-06-10T19:28:55;14.17;32.40
71396;DHT22;59888;55.814;37.132;2023-06-10T19:31:21;14.11;31.77
71396;DHT22;59888;55.814;37.132;2023-06-10T19:33:47;14.05;32.05
71396;DHT22;59888;55.814;37.132;2023-06-10T19:40:00;13.92;32.97
71396;DHT22;59888;55.814;37.132;2023-06-10T19:42:45;13.92;32.82
71396;DHT22;59888;55.814;37.132;2023-06-10T19:48:22;13.83;32.39
71396;DHT22;59888;55.814;37.132;2023-06-10T19:50:49;13.78;32.41
71396;DHT22;59888;55.814;37.132;2023-06-10T19:53:15;13.75;31.89
71396;DHT22;59888;55.814;37.132;2023-06-10T19:55:41;13.74;31.95
71396;DHT22;59888;55.814;37.132;2023-06-10T19:58:07;13.69;32.59
71396;DHT22;59888;55.814;37.132;2023-06-10T20:00:33;13.64;31.98
71396;DHT22;59888;55.814;37.132;2023-06-10T20:02:59;13.61;32.44
71396;DHT22;59888;55.814;37.132;2023-06-10T20:05:25;13.54;32.83
71396;DHT22;59888;55.814;37.132;2023-06-10T20:07:51;13.53;32.15
71396;DHT22;59888;55.814;37.132;2023-06-10T20:10:17;13.51;32.24
71396;DHT22;59888;55.814;37.132;2023-06-10T20:12:45;13.49;32.41
71396;DHT22;59888;55.814;37.132;2023-06-10T20:15:11;13.45;32.57
71396;DHT22;59888;55.814;37.132;2023-06-10T20:17:37;13.39;32.60
71396;DHT22;59888;55.814;37.132;2023-06-10T20:20:03;13.35;32.70
71396;DHT22;59888;55.814;37.132;2023-06-10T20:22:30;13.32;32.83
71396;DHT22;59888;55.814;37.132;2023-06-10T20:24:56;13.27;33.17
71396;DHT22;59888;55.814;37.132;2023-06-10T20:27:22;13.25;33.19
71396;DHT22;59888;55.814;37.132;2023-06-10T20:29:48;13.21;32.90
71396;DHT22;59888;55.814;37.132;2023-06-10T20:32:14;13.20;32.77
71396;DHT22;59888;55.814;37.132;2023-06-10T20:34:40;13.18;33.25
71396;DHT22;59888;55.814;37.132;2023-06-10T20:37:07;13.15;33.02
71396;DHT22;59888;55.814;37.132;2023-06-10T20:39:33;13.10;33.06